sensor_id;sensor_type;location;lat;lon;timestamp;P1;durP1;ratioP1;P2;durP2;ratioP2
14933;SDS011;7560;51.364;12.384;2022-09-21T00:04:59;5.22;;;3.38;;
14933;SDS011;7560;51.364;12.384;2022-09-21T00:10:00;3.88;;;3.10;;
14933;SDS011;7560;51.364;12.384;2022-09-21T00:15:11;4.18;;;3.30;;
14933;SDS011;7560;51.364;12.384;2022-09-21T00:20:13;4.43;;;3.67;;
14933;SDS011;7560;51.364;12.384;2022-09-21T00:25:16;4.90;;;3.45;;
14933;SDS011;7560;51.364;12.384;2022-09-21T00:30:18;5.47;;;3.78;;
14933;SDS011;7560;51.364;12.384;2022-09-21T00:35:20;5.95;;;3.75;;
14933;SDS011;7560;51.364;12.384;2022-09-21T00:40:21;5.45;;;4.05;;
14933;SDS011;7560;51.364;12.384;2022-09-21T00:45:23;5.43;;;4.13;;
14933;SDS011;7560;51.364;12.384;2022-09-21T00:50:25;5.25;;;3.67;;
14933;SDS011;7560;51.364;12.384;2022-09-21T00:55:28;5.28;;;4.03;;
14933;SDS011;7560;51.364;12.384;2022-09-21T01:00:38;5.57;;;4.38;;
14933;SDS011;7560;51.364;12.384;2022-09-21T01:05:40;6.72;;;4.30;;
14933;SDS011;7560;51.364;12.384;2022-09-21T01:16:11;5.43;;;4.25;;
14933;SDS011;7560;51.364;12.384;2022-09-21T01:26:34;6.25;;;4.55;;
14933;SDS011;7560;51.364;12.384;2022-09-21T01:36:57;5.53;;;4.43;;
14933;SDS011;7560;51.364;12.384;2022-09-21T01:42:04;7.07;;;4.45;;
14933;SDS011;7560;51.364;12.384;2022-09-21T01:47:08;8.02;;;4.55;;
14933;SDS011;7560;51.364;12.384;2022-09-21T01:52:14;5.00;;;4.50;;
14933;SDS011;7560;51.364;12.384;2022-09-21T01:57:49;5.65;;;4.30;;
14933;SDS011;7560;51.364;12.384;2022-09-21T02:02:58;7.03;;;4.38;;
14933;SDS011;7560;51.364;12.384;2022-09-21T02:08:05;6.00;;;4.47;;
14933;SDS011;7560;51.364;12.384;2022-09-21T02:13:09;6.00;;;4.60;;
14933;SDS011;7560;51.364;12.384;2022-09-21T02:18:14;6.70;;;5.03;;
14933;SDS011;7560;51.364;12.384;2022-09-21T02:23:42;5.72;;;4.57;;
14933;SDS011;7560;51.364;12.384;2022-09-21T02:29:06;8.10;;;4.97;;
14933;SDS011;7560;51.364;12.384;2022-09-21T02:35:04;7.78;;;5.38;;
14933;SDS011;7560;51.364;12.384;2022-09-21T02:40:20;6.55;;;5.03;;
14933;SDS011;7560;51.364;12.384;2022-09-21T02:45:20;9.85;;;6.53;;
14933;SDS011;7560;51.364;12.384;2022-09-21T02:50:32;8.95;;;5.18;;
14933;SDS011;7560;51.364;12.384;2022-09-21T02:55:40;7.25;;;5.47;;
14933;SDS011;7560;51.364;12.384;2022-09-21T03:00:44;6.63;;;5.03;;
14933;SDS011;7560;51.364;12.384;2022-09-21T03:05:47;7.28;;;5.68;;
14933;SDS011;7560;51.364;12.384;2022-09-21T03:10:51;9.00;;;6.00;;
14933;SDS011;7560;51.364;12.384;2022-09-21T03:15:57;8.50;;;6.40;;
14933;SDS011;7560;51.364;12.384;2022-09-21T03:21:04;7.40;;;5.80;;
14933;SDS011;7560;51.364;12.384;2022-09-21T03:26:06;9.85;;;6.47;;
14933;SDS011;7560;51.364;12.384;2022-09-21T03:31:08;9.25;;;6.20;;
14933;SDS011;7560;51.364;12.384;2022-09-21T03:36:10;8.55;;;6.47;;
14933;SDS011;7560;51.364;12.384;2022-09-21T03:41:12;8.57;;;6.68;;
14933;SDS011;7560;51.364;12.384;2022-09-21T03:46:15;10.55;;;7.00;;
14933;SDS011;7560;51.364;12.384;2022-09-21T03:51:17;9.45;;;6.97;;
14933;SDS011;7560;51.364;12.384;2022-09-21T03:56:19;11.43;;;7.35;;
14933;SDS011;7560;51.364;12.384;2022-09-21T04:01:20;10.30;;;6.78;;
14933;SDS011;7560;51.364;12.384;2022-09-21T04:06:22;11.18;;;6.97;;
14933;SDS011;7560;51.364;12.384;2022-09-21T04:11:25;10.63;;;7.07;;
14933;SDS011;7560;51.364;12.384;2022-09-21T04:16:26;11.30;;;6.88;;
14933;SDS011;7560;51.364;12.384;2022-09-21T04:21:28;8.50;;;6.50;;
14933;SDS011;7560;51.364;12.384;2022-09-21T04:26:31;10.45;;;6.80;;
14933;SDS011;7560;51.364;12.384;2022-09-21T04:31:34;10.23;;;7.63;;
14933;SDS011;7560;51.364;12.384;2022-09-21T04:36:36;10.30;;;6.53;;
14933;SDS011;7560;51.364;12.384;2022-09-21T04:41:37;9.80;;;6.82;;
14933;SDS011;7560;51.364;12.384;2022-09-21T04:46:39;10.23;;;6.72;;
14933;SDS011;7560;51.364;12.384;2022-09-21T04:51:42;10.32;;;7.22;;
14933;SDS011;7560;51.364;12.384;2022-09-21T04:56:44;9.70;;;6.60;;
14933;SDS011;7560;51.364;12.384;2022-09-21T05:01:45;11.75;;;7.38;;
14933;SDS011;7560;51.364;12.384;2022-09-21T05:06:47;10.38;;;7.38;;
14933;SDS011;7560;51.364;12.384;2022-09-21T05:11:49;8.95;;;6.50;;
14933;SDS011;7560;51.364;12.384;2022-09-21T05:16:52;13.02;;;7.03;;
14933;SDS011;7560;51.364;12.384;2022-09-21T05:21:53;10.55;;;7.78;;
14933;SDS011;7560;51.364;12.384;2022-09-21T05:26:55;12.45;;;7.45;;
14933;SDS011;7560;51.364;12.384;2022-09-21T05:42:52;12.30;;;8.63;;
14933;SDS011;7560;51.364;12.384;2022-09-21T05:58:50;10.27;;;7.32;;
14933;SDS011;7560;51.364;12.384;2022-09-21T06:03:57;12.75;;;7.00;;
14933;SDS011;7560;51.364;12.384;2022-09-21T06:08:59;10.43;;;7.50;;
14933;SDS011;7560;51.364;12.384;2022-09-21T06:14:01;11.60;;;7.18;;
14933;SDS011;7560;51.364;12.384;2022-09-21T06:19:03;13.73;;;6.90;;
14933;SDS011;7560;51.364;12.384;2022-09-21T06:24:05;10.27;;;6.85;;
14933;SDS011;7560;51.364;12.384;2022-09-21T06:29:07;10.38;;;6.65;;
14933;SDS011;7560;51.364;12.384;2022-09-21T06:34:09;10.50;;;7.38;;
14933;SDS011;7560;51.364;12.384;2022-09-21T06:39:11;9.77;;;7.07;;
14933;SDS011;7560;51.364;12.384;2022-09-21T06:44:12;9.15;;;7.05;;
14933;SDS011;7560;51.364;12.384;2022-09-21T06:49:14;11.43;;;7.47;;
14933;SDS011;7560;51.364;12.384;2022-09-21T06:54:16;13.90;;;7.20;;
14933;SDS011;7560;51.364;12.384;2022-09-21T06:59:18;9.93;;;6.90;;
14933;SDS011;7560;51.364;12.384;2022-09-21T07:04:21;13.70;;;7.40;;
14933;SDS011;7560;51.364;12.384;2022-09-21T07:09:25;10.43;;;7.57;;
14933;SDS011;7560;51.364;12.384;2022-09-21T07:14:47;10.80;;;7.95;;
14933;SDS011;7560;51.364;12.384;2022-09-21T07:19:48;9.50;;;7.13;;
14933;SDS011;7560;51.364;12.384;2022-09-21T07:24:50;11.25;;;7.78;;
14933;SDS011;7560;51.364;12.384;2022-09-21T07:29:52;12.60;;;8.35;;
14933;SDS011;7560;51.364;12.384;2022-09-21T07:34:54;11.75;;;8.25;;
14933;SDS011;7560;51.364;12.384;2022-09-21T07:39:57;11.35;;;7.25;;
14933;SDS011;7560;51.364;12.384;2022-09-21T07:44:58;12.57;;;7.88;;
14933;SDS011;7560;51.364;12.384;2022-09-21T07:50:05;12.07;;;7.80;;
14933;SDS011;7560;51.364;12.384;2022-09-21T07:55:07;10.25;;;7.47;;
14933;SDS011;7560;51.364;12.384;2022-09-21T08:00:08;10.77;;;7.10;;
14933;SDS011;7560;51.364;12.384;2022-09-21T08:05:11;12.82;;;7.85;;
14933;SDS011;7560;51.364;12.384;2022-09-21T08:10:12;12.60;;;7.18;;
14933;SDS011;7560;51.364;12.384;2022-09-21T08:15:14;13.32;;;7.72;;
14933;SDS011;7560;51.364;12.384;2022-09-21T08:20:37;10.68;;;6.95;;
14933;SDS011;7560;51.364;12.384;2022-09-21T08:25:39;11.38;;;6.85;;
14933;SDS011;7560;51.364;12.384;2022-09-21T08:30:41;11.20;;;6.50;;
14933;SDS011;7560;51.364;12.384;2022-09-21T08:35:42;7.70;;;5.80;;
14933;SDS011;7560;51.364;12.384;2022-09-21T08:40:52;11.73;;;6.63;;
14933;SDS011;7560;51.364;12.384;2022-09-21T08:45:55;10.40;;;6.53;;
14933;SDS011;7560;51.364;12.384;2022-09-21T08:51:00;9.13;;;5.80;;
14933;SDS011;7560;51.364;12.384;2022-09-21T08:56:07;10.30;;;5.93;;
14933;SDS011;7560;51.364;12.384;2022-09-21T09:11:37;10.38;;;5.13;;
14933;SDS011;7560;51.364;12.384;2022-09-21T09:22:24;7.70;;;4.50;;
14933;SDS011;7560;51.364;12.384;2022-09-21T09:27:37;10.32;;;4.63;;
14933;SDS011;7560;51.364;12.384;2022-09-21T09:32:51;8.65;;;4.50;;
14933;SDS011;7560;51.364;12.384;2022-09-21T09:38:03;6.97;;;4.30;;
14933;SDS011;7560;51.364;12.384;2022-09-21T09:43:17;7.03;;;4.53;;
14933;SDS011;7560;51.364;12.384;2022-09-21T09:48:39;6.18;;;3.80;;
14933;SDS011;7560;51.364;12.384;2022-09-21T09:53:55;6.47;;;4.00;;
14933;SDS011;7560;51.364;12.384;2022-09-21T09:59:02;4.40;;;3.42;;
14933;SDS011;7560;51.364;12.384;2022-09-21T10:04:10;7.38;;;3.70;;
14933;SDS011;7560;51.364;12.384;2022-09-21T10:09:18;8.80;;;3.38;;
14933;SDS011;7560;51.364;12.384;2022-09-21T10:14:24;5.13;;;2.55;;
14933;SDS011;7560;51.364;12.384;2022-09-21T10:19:29;4.70;;;3.30;;
14933;SDS011;7560;51.364;12.384;2022-09-21T10:24:33;6.25;;;3.53;;
14933;SDS011;7560;51.364;12.384;2022-09-21T10:29:44;6.95;;;3.25;;
14933;SDS011;7560;51.364;12.384;2022-09-21T10:45:23;2.63;;;0.88;;
14933;SDS011;7560;51.364;12.384;2022-09-21T10:50:27;1.70;;;0.90;;
14933;SDS011;7560;51.364;12.384;2022-09-21T10:55:41;2.75;;;1.40;;
14933;SDS011;7560;51.364;12.384;2022-09-21T11:01:25;4.47;;;1.23;;
14933;SDS011;7560;51.364;12.384;2022-09-21T11:06:30;2.35;;;1.70;;
14933;SDS011;7560;51.364;12.384;2022-09-21T11:17:11;3.50;;;1.80;;
14933;SDS011;7560;51.364;12.384;2022-09-21T11:22:31;3.40;;;1.55;;
14933;SDS011;7560;51.364;12.384;2022-09-21T11:28:03;2.22;;;1.48;;
14933;SDS011;7560;51.364;12.384;2022-09-21T11:38:56;2.67;;;1.40;;
14933;SDS011;7560;51.364;12.384;2022-09-21T11:44:09;1.77;;;1.00;;
14933;SDS011;7560;51.364;12.384;2022-09-21T11:55:41;2.78;;;0.85;;
14933;SDS011;7560;51.364;12.384;2022-09-21T12:00:59;1.25;;;0.90;;
14933;SDS011;7560;51.364;12.384;2022-09-21T12:06:34;2.97;;;1.25;;
14933;SDS011;7560;51.364;12.384;2022-09-21T12:22:30;1.30;;;0.75;;
14933;SDS011;7560;51.364;12.384;2022-09-21T12:32:43;1.17;;;0.80;;
14933;SDS011;7560;51.364;12.384;2022-09-21T12:37:58;2.20;;;0.60;;
14933;SDS011;7560;51.364;12.384;2022-09-21T12:48:42;2.10;;;0.85;;
14933;SDS011;7560;51.364;12.384;2022-09-21T12:53:45;2.22;;;0.80;;
14933;SDS011;7560;51.364;12.384;2022-09-21T13:04:25;2.78;;;1.20;;
14933;SDS011;7560;51.364;12.384;2022-09-21T13:09:48;1.02;;;0.90;;
14933;SDS011;7560;51.364;12.384;2022-09-21T13:14:51;2.13;;;0.80;;
14933;SDS011;7560;51.364;12.384;2022-09-21T13:20:06;1.58;;;0.80;;
14933;SDS011;7560;51.364;12.384;2022-09-21T13:25:24;1.98;;;1.00;;
14933;SDS011;7560;51.364;12.384;2022-09-21T13:30:38;1.48;;;0.93;;
14933;SDS011;7560;51.364;12.384;2022-09-21T13:41:03;1.73;;;1.05;;
14933;SDS011;7560;51.364;12.384;2022-09-21T13:57:13;1.73;;;0.90;;
14933;SDS011;7560;51.364;12.384;2022-09-21T14:02:30;2.47;;;0.90;;
14933;SDS011;7560;51.364;12.384;2022-09-21T14:07:37;1.55;;;0.80;;
14933;SDS011;7560;51.364;12.384;2022-09-21T14:12:41;2.47;;;1.42;;
14933;SDS011;7560;51.364;12.384;2022-09-21T14:28:27;0.52;;;0.50;;
14933;SDS011;7560;51.364;12.384;2022-09-21T14:33:43;0.90;;;0.70;;
14933;SDS011;7560;51.364;12.384;2022-09-21T14:38:54;2.15;;;0.70;;
14933;SDS011;7560;51.364;12.384;2022-09-21T14:44:00;1.35;;;0.65;;
14933;SDS011;7560;51.364;12.384;2022-09-21T15:05:27;0.43;;;0.40;;
14933;SDS011;7560;51.364;12.384;2022-09-21T15:10:46;0.70;;;0.50;;
14933;SDS011;7560;51.364;12.384;2022-09-21T15:16:06;1.23;;;0.60;;
14933;SDS011;7560;51.364;12.384;2022-09-21T15:21:36;2.03;;;0.65;;
14933;SDS011;7560;51.364;12.384;2022-09-21T15:26:43;1.65;;;1.10;;
14933;SDS011;7560;51.364;12.384;2022-09-21T15:31:46;2.67;;;0.68;;
14933;SDS011;7560;51.364;12.384;2022-09-21T15:36:48;1.20;;;0.80;;
14933;SDS011;7560;51.364;12.384;2022-09-21T15:42:14;2.17;;;1.80;;
14933;SDS011;7560;51.364;12.384;2022-09-21T15:47:20;0.80;;;0.70;;
14933;SDS011;7560;51.364;12.384;2022-09-21T15:52:30;1.15;;;1.00;;
14933;SDS011;7560;51.364;12.384;2022-09-21T15:57:38;8.25;;;3.75;;
14933;SDS011;7560;51.364;12.384;2022-09-21T16:02:52;2.28;;;1.10;;
14933;SDS011;7560;51.364;12.384;2022-09-21T16:08:15;3.58;;;1.60;;
14933;SDS011;7560;51.364;12.384;2022-09-21T16:13:30;3.15;;;1.63;;
14933;SDS011;7560;51.364;12.384;2022-09-21T16:18:52;2.10;;;1.10;;
14933;SDS011;7560;51.364;12.384;2022-09-21T16:23:56;1.60;;;1.10;;
14933;SDS011;7560;51.364;12.384;2022-09-21T16:29:17;2.50;;;1.70;;
14933;SDS011;7560;51.364;12.384;2022-09-21T16:34:33;2.95;;;1.52;;
14933;SDS011;7560;51.364;12.384;2022-09-21T16:39:36;3.08;;;1.70;;
14933;SDS011;7560;51.364;12.384;2022-09-21T16:44:38;3.00;;;1.90;;
14933;SDS011;7560;51.364;12.384;2022-09-21T16:49:44;3.45;;;1.90;;
14933;SDS011;7560;51.364;12.384;2022-09-21T16:54:46;2.63;;;1.70;;
14933;SDS011;7560;51.364;12.384;2022-09-21T16:59:49;2.35;;;1.77;;
14933;SDS011;7560;51.364;12.384;2022-09-21T17:04:51;4.20;;;2.20;;
14933;SDS011;7560;51.364;12.384;2022-09-21T17:09:53;3.63;;;2.40;;
14933;SDS011;7560;51.364;12.384;2022-09-21T17:14:54;7.05;;;2.65;;
14933;SDS011;7560;51.364;12.384;2022-09-21T17:19:56;6.53;;;2.92;;
14933;SDS011;7560;51.364;12.384;2022-09-21T17:24:58;4.15;;;2.95;;
14933;SDS011;7560;51.364;12.384;2022-09-21T17:29:59;4.57;;;2.88;;
14933;SDS011;7560;51.364;12.384;2022-09-21T17:40:24;3.88;;;2.97;;
14933;SDS011;7560;51.364;12.384;2022-09-21T17:45:37;5.05;;;2.90;;
14933;SDS011;7560;51.364;12.384;2022-09-21T17:50:47;6.05;;;3.50;;
14933;SDS011;7560;51.364;12.384;2022-09-21T17:55:51;6.63;;;4.50;;
14933;SDS011;7560;51.364;12.384;2022-09-21T18:01:04;6.20;;;4.03;;
14933;SDS011;7560;51.364;12.384;2022-09-21T18:06:08;5.97;;;4.50;;
14933;SDS011;7560;51.364;12.384;2022-09-21T18:16:26;13.35;;;7.50;;
14933;SDS011;7560;51.364;12.384;2022-09-21T18:21:35;10.18;;;5.97;;
14933;SDS011;7560;51.364;12.384;2022-09-21T18:26:43;11.00;;;7.13;;
14933;SDS011;7560;51.364;12.384;2022-09-21T18:37:17;75.30;;;42.40;;
14933;SDS011;7560;51.364;12.384;2022-09-21T18:58:45;19.95;;;12.95;;
14933;SDS011;7560;51.364;12.384;2022-09-21T19:03:47;14.95;;;10.50;;
14933;SDS011;7560;51.364;12.384;2022-09-21T19:14:26;36.17;;;25.60;;
14933;SDS011;7560;51.364;12.384;2022-09-21T19:19:40;19.83;;;13.15;;
14933;SDS011;7560;51.364;12.384;2022-09-21T19:25:03;13.98;;;10.40;;
14933;SDS011;7560;51.364;12.384;2022-09-21T19:30:15;12.48;;;9.93;;
14933;SDS011;7560;51.364;12.384;2022-09-21T19:40:29;11.20;;;8.63;;
14933;SDS011;7560;51.364;12.384;2022-09-21T19:51:07;11.40;;;8.35;;
14933;SDS011;7560;51.364;12.384;2022-09-21T19:56:43;14.05;;;9.77;;
14933;SDS011;7560;51.364;12.384;2022-09-21T20:02:07;11.68;;;8.15;;
14933;SDS011;7560;51.364;12.384;2022-09-21T20:12:50;15.30;;;10.07;;
14933;SDS011;7560;51.364;12.384;2022-09-21T20:18:09;13.35;;;9.18;;
14933;SDS011;7560;51.364;12.384;2022-09-21T20:23:28;14.27;;;9.55;;
14933;SDS011;7560;51.364;12.384;2022-09-21T20:28:30;12.95;;;9.07;;
14933;SDS011;7560;51.364;12.384;2022-09-21T20:33:32;10.98;;;9.23;;
14933;SDS011;7560;51.364;12.384;2022-09-21T20:38:34;13.25;;;9.52;;
14933;SDS011;7560;51.364;12.384;2022-09-21T20:43:36;14.55;;;9.23;;
14933;SDS011;7560;51.364;12.384;2022-09-21T20:48:37;12.88;;;9.57;;
14933;SDS011;7560;51.364;12.384;2022-09-21T20:53:40;11.65;;;9.90;;
14933;SDS011;7560;51.364;12.384;2022-09-21T20:58:41;10.80;;;8.38;;
14933;SDS011;7560;51.364;12.384;2022-09-21T21:03:43;10.52;;;8.65;;
14933;SDS011;7560;51.364;12.384;2022-09-21T21:08:45;12.65;;;8.98;;
14933;SDS011;7560;51.364;12.384;2022-09-21T21:13:47;13.02;;;9.18;;
14933;SDS011;7560;51.364;12.384;2022-09-21T21:18:48;11.10;;;8.57;;
14933;SDS011;7560;51.364;12.384;2022-09-21T21:23:50;9.32;;;8.32;;
14933;SDS011;7560;51.364;12.384;2022-09-21T21:29:11;11.70;;;8.57;;
14933;SDS011;7560;51.364;12.384;2022-09-21T21:34:13;12.38;;;8.48;;
14933;SDS011;7560;51.364;12.384;2022-09-21T21:39:15;12.00;;;8.25;;
14933;SDS011;7560;51.364;12.384;2022-09-21T21:44:17;12.70;;;8.43;;
14933;SDS011;7560;51.364;12.384;2022-09-21T21:49:19;10.55;;;8.13;;
14933;SDS011;7560;51.364;12.384;2022-09-21T21:54:21;9.65;;;7.90;;
14933;SDS011;7560;51.364;12.384;2022-09-21T21:59:24;9.98;;;7.30;;
14933;SDS011;7560;51.364;12.384;2022-09-21T22:04:25;10.30;;;7.25;;
14933;SDS011;7560;51.364;12.384;2022-09-21T22:09:28;8.30;;;6.65;;
14933;SDS011;7560;51.364;12.384;2022-09-21T22:14:29;9.98;;;7.43;;
14933;SDS011;7560;51.364;12.384;2022-09-21T22:19:31;10.25;;;7.25;;
14933;SDS011;7560;51.364;12.384;2022-09-21T22:24:33;9.32;;;7.05;;
14933;SDS011;7560;51.364;12.384;2022-09-21T22:29:35;8.10;;;6.75;;
14933;SDS011;7560;51.364;12.384;2022-09-21T22:34:36;11.15;;;7.70;;
14933;SDS011;7560;51.364;12.384;2022-09-21T22:39:38;10.70;;;7.68;;
14933;SDS011;7560;51.364;12.384;2022-09-21T22:44:40;9.50;;;8.05;;
14933;SDS011;7560;51.364;12.384;2022-09-21T22:49:41;9.57;;;7.30;;
14933;SDS011;7560;51.364;12.384;2022-09-21T22:54:43;11.40;;;7.55;;
14933;SDS011;7560;51.364;12.384;2022-09-21T22:59:45;10.20;;;7.75;;
14933;SDS011;7560;51.364;12.384;2022-09-21T23:04:46;9.32;;;6.93;;
14933;SDS011;7560;51.364;12.384;2022-09-21T23:09:48;11.25;;;8.15;;
14933;SDS011;7560;51.364;12.384;2022-09-21T23:14:50;12.25;;;8.68;;
14933;SDS011;7560;51.364;12.384;2022-09-21T23:19:52;13.40;;;10.10;;
14933;SDS011;7560;51.364;12.384;2022-09-21T23:24:54;12.55;;;10.23;;
14933;SDS011;7560;51.364;12.384;2022-09-21T23:29:56;12.35;;;9.68;;
14933;SDS011;7560;51.364;12.384;2022-09-21T23:34:57;14.02;;;10.10;;
14933;SDS011;7560;51.364;12.384;2022-09-21T23:39:59;14.82;;;10.82;;
14933;SDS011;7560;51.364;12.384;2022-09-21T23:45:01;12.35;;;9.60;;
14933;SDS011;7560;51.364;12.384;2022-09-21T23:50:03;13.50;;;9.95;;
14933;SDS011;7560;51.364;12.384;2022-09-21T23:55:05;13.55;;;10.32;;
